Time;durP1;ratioP1;P1;durP2;ratioP2;P2;SDS_P1;SDS_P2;PMS_P1;PMS_P2;Temp;Humidity;BMP_temperature;BMP_pressure;BME280_temperature;BME280_humidity;BME280_pressure;Samples;Min_cycle;Max_cycle;Signal;HPM_P1;HPM_P2
2022/03/01 00:00:27;;;;;;;14.10;8.52;;;3.70;78.80;;;;;;5100328;27;37196;-55
2022/03/01 00:02:55;;;;;;;15.63;8.27;;;3.70;78.30;;;;;;5098555;27;36960;-55
2022/03/01 00:05:22;;;;;;;19.10;9.40;;;3.80;78.50;;;;;;5098946;27;38307;-54
2022/03/01 00:07:50;;;;;;;13.38;7.88;;;3.70;78.50;;;;;;5098147;27;38357;-55
2022/03/01 00:10:17;;;;;;;14.65;8.95;;;3.70;78.60;;;;;;5098118;27;38599;-55
2022/03/01 00:12:44;;;;;;;15.05;8.18;;;3.70;78.70;;;;;;5098245;27;36503;-55
2022/03/01 00:15:12;;;;;;;14.90;8.70;;;3.70;79.00;;;;;;5097774;27;36228;-55
2022/03/01 00:17:39;;;;;;;12.63;8.52;;;3.60;79.60;;;;;;5099031;27;37100;-55
2022/03/01 00:20:09;;;;;;;12.90;7.65;;;3.60;79.80;;;;;;5099471;27;38193;-55
2022/03/01 00:22:36;;;;;;;13.75;8.45;;;3.60;79.70;;;;;;5099361;27;36626;-55
2022/03/01 00:25:05;;;;;;;11.90;7.35;;;3.50;80.00;;;;;;5098556;27;37475;-55
2022/03/01 00:27:32;;;;;;;12.32;8.25;;;3.50;80.00;;;;;;5098299;27;38847;-55
2022/03/01 00:29:59;;;;;;;12.18;7.57;;;3.50;80.00;;;;;;5100407;27;39165;-55
2022/03/01 00:32:27;;;;;;;12.77;7.45;;;3.50;80.40;;;;;;5098353;27;36327;-55
2022/03/01 00:34:54;;;;;;;13.13;7.78;;;3.40;80.30;;;;;;5099762;27;36375;-55
2022/03/01 00:37:23;;;;;;;15.23;8.18;;;3.40;80.30;;;;;;5098781;27;38669;-56
2022/03/01 00:39:50;;;;;;;13.65;7.80;;;3.40;80.40;;;;;;5100263;27;37544;-55
2022/03/01 00:42:17;;;;;;;12.38;7.65;;;3.40;80.20;;;;;;5099480;27;36950;-56
2022/03/01 00:44:45;;;;;;;15.70;8.40;;;3.50;79.90;;;;;;5098877;27;36328;-56
2022/03/01 00:47:12;;;;;;;12.57;8.00;;;3.50;80.20;;;;;;5099215;27;40469;-55
2022/03/01 00:49:39;;;;;;;14.38;7.45;;;3.60;79.30;;;;;;5099022;27;38272;-55
2022/03/01 00:52:07;;;;;;;13.43;8.35;;;3.70;78.70;;;;;;5099566;27;35190;-55
2022/03/01 00:54:36;;;;;;;12.80;7.78;;;3.70;78.40;;;;;;5100293;27;37701;-55
2022/03/01 00:57:04;;;;;;;13.48;7.72;;;3.70;77.80;;;;;;5098479;27;38192;-55
2022/03/01 00:59:31;;;;;;;13.00;7.63;;;3.70;77.80;;;;;;5099762;27;37809;-55
2022/03/01 01:01:58;;;;;;;12.60;8.02;;;3.70;77.70;;;;;;5099400;27;36293;-55
2022/03/01 01:04:26;;;;;;;12.55;7.85;;;3.60;78.10;;;;;;5099139;27;39751;-55
2022/03/01 01:06:53;;;;;;;12.57;7.40;;;3.50;78.20;;;;;;5097957;27;38433;-55
2022/03/01 01:09:20;;;;;;;16.20;8.18;;;3.50;78.50;;;;;;5099609;27;36537;-55
2022/03/01 01:11:49;;;;;;;12.98;7.95;;;3.40;79.10;;;;;;5099188;27;39716;-55
2022/03/01 01:14:17;;;;;;;14.18;7.82;;;3.20;79.70;;;;;;5098426;27;37144;-55
2022/03/01 01:16:44;;;;;;;13.35;8.07;;;3.20;80.20;;;;;;5098205;27;37940;-55
2022/03/01 01:19:11;;;;;;;13.82;8.35;;;3.20;80.80;;;;;;5098097;27;36602;-55
2022/03/01 01:24:20;;;;;;;13.98;8.40;;;3.20;80.40;;;;;;5072705;27;37136;-55
2022/03/01 01:26:48;;;;;;;13.85;7.97;;;3.30;80.30;;;;;;5098041;27;38165;-55
2022/03/01 01:29:16;;;;;;;18.15;8.25;;;3.30;80.10;;;;;;5098839;27;37741;-55
2022/03/01 01:31:43;;;;;;;13.93;7.85;;;3.30;80.00;;;;;;5097692;27;36449;-55
2022/03/01 01:34:13;;;;;;;13.50;7.47;;;3.40;79.80;;;;;;5095481;27;37002;-55
2022/03/01 01:36:40;;;;;;;12.68;7.63;;;3.40;79.60;;;;;;5095212;27;38132;-55
2022/03/01 01:39:07;;;;;;;14.40;8.18;;;3.50;79.70;;;;;;5097444;27;37273;-55
2022/03/01 01:41:35;;;;;;;15.48;7.65;;;3.50;79.00;;;;;;5097818;27;36691;-53
2022/03/01 01:44:06;;;;;;;14.40;7.57;;;3.50;79.20;;;;;;5098057;27;39890;-55
2022/03/01 01:46:34;;;;;;;14.27;7.43;;;3.50;79.00;;;;;;5098294;27;38657;-55
2022/03/01 01:49:02;;;;;;;13.02;7.55;;;3.50;78.90;;;;;;5098101;27;37741;-55
2022/03/01 01:51:29;;;;;;;13.15;7.95;;;3.50;78.90;;;;;;5097973;27;36437;-55
2022/03/01 01:53:57;;;;;;;11.65;7.32;;;3.40;79.50;;;;;;5097191;27;37634;-55
2022/03/01 01:56:24;;;;;;;12.82;7.38;;;3.30;79.20;;;;;;5095956;27;37008;-55
2022/03/01 01:58:52;;;;;;;13.40;7.47;;;3.30;80.50;;;;;;5098207;27;37691;-55
2022/03/01 02:01:20;;;;;;;13.77;8.02;;;3.30;81.00;;;;;;5096459;27;36678;-55
2022/03/01 02:03:48;;;;;;;15.05;8.27;;;3.20;80.50;;;;;;5097730;27;38791;-55
2022/03/01 02:06:15;;;;;;;12.30;7.80;;;3.20;80.20;;;;;;5097485;27;36893;-55
2022/03/01 02:08:43;;;;;;;13.75;7.40;;;3.20;79.70;;;;;;5098553;27;37763;-55
2022/03/01 02:11:10;;;;;;;14.13;7.80;;;3.30;79.20;;;;;;5095516;27;37505;-55
2022/03/01 02:13:37;;;;;;;12.73;7.40;;;3.30;79.10;;;;;;5097397;27;40728;-55
2022/03/01 02:16:05;;;;;;;14.20;8.65;;;3.40;78.60;;;;;;5096348;27;38321;-56
2022/03/01 02:18:34;;;;;;;13.50;8.20;;;3.40;78.30;;;;;;5097727;27;38398;-55
2022/03/01 02:21:03;;;;;;;14.73;7.50;;;3.40;78.30;;;;;;5097143;27;37720;-55
2022/03/01 02:23:30;;;;;;;13.45;7.72;;;3.50;77.90;;;;;;5097183;27;37362;-55
2022/03/01 02:25:58;;;;;;;13.02;7.35;;;3.60;77.50;;;;;;5097852;27;38542;-55
2022/03/01 02:28:25;;;;;;;13.68;7.88;;;3.70;77.10;;;;;;5096124;27;40398;-55
2022/03/01 02:30:52;;;;;;;13.15;8.07;;;3.70;77.30;;;;;;5097513;27;36519;-54
2022/03/01 02:33:20;;;;;;;14.27;7.97;;;3.80;76.40;;;;;;5098009;27;36498;-55
2022/03/01 02:35:47;;;;;;;18.92;7.70;;;3.90;75.70;;;;;;5098121;27;38277;-55
2022/03/01 02:38:16;;;;;;;13.75;8.45;;;4.00;74.60;;;;;;5097123;27;37402;-55
2022/03/01 02:40:43;;;;;;;12.98;7.75;;;4.10;73.80;;;;;;5097319;27;36536;-55
2022/03/01 02:43:11;;;;;;;17.63;8.10;;;4.20;73.30;;;;;;5095549;27;36212;-55
2022/03/01 02:45:38;;;;;;;13.23;7.70;;;4.20;72.90;;;;;;5096556;27;38532;-55
2022/03/01 02:48:06;;;;;;;13.02;7.35;;;4.10;73.30;;;;;;5097304;27;37578;-55
2022/03/01 02:50:33;;;;;;;13.70;7.72;;;3.90;74.00;;;;;;5097413;27;37685;-55
2022/03/01 02:53:01;;;;;;;13.60;8.27;;;3.80;74.80;;;;;;5096565;27;37151;-55
2022/03/01 02:55:29;;;;;;;15.40;8.40;;;3.80;75.10;;;;;;5096626;27;39590;-55
2022/03/01 02:57:57;;;;;;;13.52;7.82;;;3.70;75.90;;;;;;5094708;27;38963;-55
2022/03/01 03:00:24;;;;;;;11.85;7.40;;;3.70;75.90;;;;;;5095819;27;37415;-55
2022/03/01 03:02:52;;;;;;;15.02;8.50;;;3.70;75.50;;;;;;5095505;27;39717;-55
2022/03/01 03:05:19;;;;;;;13.20;8.13;;;3.80;75.40;;;;;;5097050;27;39075;-55
2022/03/01 03:07:46;;;;;;;12.70;7.35;;;3.90;74.70;;;;;;5098121;27;38536;-55
2022/03/01 03:10:14;;;;;;;13.25;6.82;;;3.90;74.30;;;;;;5101123;27;36398;-55
2022/03/01 03:12:43;;;;;;;12.63;7.40;;;4.00;74.00;;;;;;5100739;27;37605;-55
2022/03/01 03:15:11;;;;;;;15.85;8.27;;;3.90;74.10;;;;;;5101466;27;39229;-56
2022/03/01 03:17:38;;;;;;;17.27;8.40;;;3.90;74.90;;;;;;5099655;27;39250;-55
2022/03/01 03:20:06;;;;;;;14.20;8.02;;;3.90;74.40;;;;;;5100974;27;35249;-55
2022/03/01 03:22:34;;;;;;;15.35;8.13;;;3.90;74.00;;;;;;5100039;27;36460;-55
2022/03/01 03:25:01;;;;;;;13.68;7.68;;;4.00;73.30;;;;;;5100805;27;37998;-55
2022/03/01 03:27:28;;;;;;;15.50;8.43;;;4.00;73.30;;;;;;5099826;27;37609;-55
2022/03/01 03:29:57;;;;;;;13.05;7.88;;;4.00;73.40;;;;;;5098911;27;36010;-55
2022/03/01 03:32:24;;;;;;;17.23;8.48;;;4.10;73.10;;;;;;5099783;27;37399;-55
2022/03/01 03:34:52;;;;;;;16.13;8.63;;;4.10;72.70;;;;;;5100547;27;39221;-55
2022/03/01 03:37:19;;;;;;;15.07;9.18;;;4.20;72.80;;;;;;5098326;27;36741;-54
2022/03/01 03:39:46;;;;;;;16.10;7.68;;;4.20;72.50;;;;;;5100928;27;37053;-54
2022/03/01 03:42:14;;;;;;;13.15;7.93;;;4.30;72.50;;;;;;5100003;27;37569;-55
2022/03/01 03:44:41;;;;;;;13.68;8.23;;;4.20;72.40;;;;;;5099756;27;37033;-55
2022/03/01 03:47:10;;;;;;;12.93;7.80;;;4.20;72.60;;;;;;5098891;27;37970;-56
2022/03/01 03:49:37;;;;;;;13.18;7.88;;;4.30;72.40;;;;;;5100339;27;37761;-56
2022/03/01 03:52:07;;;;;;;15.10;8.40;;;4.30;72.00;;;;;;5099430;27;37724;-56
2022/03/01 03:54:34;;;;;;;15.85;8.82;;;4.40;71.90;;;;;;5098793;27;38312;-55
2022/03/01 03:57:07;;;;;;;13.82;8.32;;;4.40;71.60;;;;;;5099900;27;39115;-55
2022/03/01 03:59:35;;;;;;;13.60;7.95;;;4.50;71.50;;;;;;5100476;27;36521;-55
2022/03/01 04:02:03;;;;;;;14.70;7.82;;;4.50;71.50;;;;;;5098692;27;37406;-55
2022/03/01 04:04:34;;;;;;;13.00;7.90;;;4.50;71.30;;;;;;5097710;27;38293;-55
2022/03/01 04:07:01;;;;;;;14.15;7.95;;;4.60;70.90;;;;;;5098325;27;37759;-55
2022/03/01 04:09:29;;;;;;;12.85;7.93;;;4.50;70.60;;;;;;5098686;27;35374;-54
2022/03/01 04:11:56;;;;;;;14.90;7.60;;;4.60;70.50;;;;;;5099104;27;38296;-55
2022/03/01 04:14:24;;;;;;;13.75;7.75;;;4.60;70.30;;;;;;5099524;27;38455;-55
2022/03/01 04:16:51;;;;;;;12.20;7.68;;;4.60;70.30;;;;;;5097706;27;36581;-55
2022/03/01 04:19:18;;;;;;;14.57;8.52;;;4.50;70.50;;;;;;5097441;27;38358;-55
2022/03/01 04:21:47;;;;;;;15.75;8.25;;;4.40;70.40;;;;;;5096746;27;38669;-55
2022/03/01 04:24:14;;;;;;;12.98;8.13;;;4.90;71.10;;;;;;5098212;27;38548;-59
2022/03/01 04:26:43;;;;;;;13.57;8.68;;;4.30;71.30;;;;;;5098108;27;36414;-59
2022/03/01 04:29:11;;;;;;;16.27;8.18;;;4.30;71.60;;;;;;5099645;27;35418;-59
2022/03/01 04:31:38;;;;;;;14.32;8.38;;;4.20;71.70;;;;;;5098633;27;37729;-59
2022/03/01 04:34:06;;;;;;;13.57;7.95;;;4.30;71.90;;;;;;5099342;27;39537;-59
2022/03/01 04:36:33;;;;;;;14.32;8.10;;;4.30;71.70;;;;;;5099468;27;39367;-59
2022/03/01 04:39:03;;;;;;;15.55;8.20;;;4.30;71.70;;;;;;5100307;27;39049;-59
2022/03/01 04:41:30;;;;;;;13.55;8.18;;;4.30;72.00;;;;;;5099861;27;36357;-59
2022/03/01 04:43:58;;;;;;;13.82;8.00;;;4.40;71.70;;;;;;5100028;27;38518;-59
2022/03/01 04:46:25;;;;;;;16.60;8.40;;;4.40;71.20;;;;;;5099533;27;38038;-59
2022/03/01 04:48:52;;;;;;;14.55;8.23;;;4.40;71.30;;;;;;5097446;27;36366;-59
2022/03/01 04:51:21;;;;;;;13.10;8.35;;;4.40;71.40;;;;;;5099690;27;40059;-55
2022/03/01 04:53:48;;;;;;;14.48;8.30;;;4.70;71.90;;;;;;5099712;27;38140;-55
2022/03/01 04:56:17;;;;;;;19.48;8.35;;;4.40;71.60;;;;;;5097345;27;36704;-56
2022/03/01 04:58:45;;;;;;;16.77;8.55;;;4.40;72.30;;;;;;5099279;27;36286;-56
2022/03/01 05:01:13;;;;;;;17.13;9.05;;;4.40;71.90;;;;;;5098544;27;37957;-56
2022/03/01 05:03:40;;;;;;;15.32;8.95;;;4.40;71.60;;;;;;5099085;27;36900;-56
2022/03/01 05:06:07;;;;;;;13.65;8.25;;;4.40;71.70;;;;;;5098386;27;38658;-56
2022/03/01 05:08:34;;;;;;;15.82;9.07;;;4.50;71.30;;;;;;5099134;27;35196;-56
2022/03/01 05:11:03;;;;;;;13.93;8.23;;;4.40;71.70;;;;;;5098552;27;39630;-56
2022/03/01 05:13:31;;;;;;;15.82;8.77;;;4.50;71.80;;;;;;5098723;27;38765;-56
2022/03/01 05:15:59;;;;;;;14.00;8.40;;;4.50;71.80;;;;;;5098186;27;38022;-56
2022/03/01 05:18:26;;;;;;;14.57;8.55;;;4.50;71.70;;;;;;5099544;27;36522;-56
2022/03/01 05:20:54;;;;;;;14.43;8.95;;;4.50;71.90;;;;;;5099269;27;38266;-56
2022/03/01 05:23:21;;;;;;;15.70;8.73;;;4.50;71.70;;;;;;5099332;27;38339;-56
2022/03/01 05:25:48;;;;;;;15.40;9.27;;;4.50;71.40;;;;;;5098431;27;37895;-60
2022/03/01 05:28:16;;;;;;;16.60;9.10;;;4.50;71.60;;;;;;5097237;27;36298;-60
2022/03/01 05:30:45;;;;;;;14.32;8.27;;;4.50;71.80;;;;;;5097997;27;39196;-59
2022/03/01 05:33:12;;;;;;;18.27;9.05;;;4.60;71.70;;;;;;5098649;27;39268;-60
2022/03/01 05:35:40;;;;;;;16.25;9.10;;;4.60;71.60;;;;;;5098293;27;38493;-60
2022/03/01 05:38:09;;;;;;;18.60;9.07;;;4.50;71.50;;;;;;5097985;27;36362;-60
2022/03/01 05:40:38;;;;;;;16.25;8.65;;;4.50;71.90;;;;;;5098599;27;37214;-59
2022/03/01 05:43:06;;;;;;;16.27;9.30;;;4.50;72.00;;;;;;5096771;27;38312;-59
2022/03/01 05:45:34;;;;;;;14.57;8.60;;;4.50;72.10;;;;;;5096076;27;37619;-59
2022/03/01 05:48:02;;;;;;;15.50;9.57;;;4.60;72.40;;;;;;5096828;27;35358;-59
2022/03/01 05:50:30;;;;;;;16.05;8.82;;;4.50;71.70;;;;;;5096972;27;37398;-60
2022/03/01 05:52:58;;;;;;;13.60;8.73;;;4.50;71.70;;;;;;5097709;27;38010;-59
2022/03/01 05:55:25;;;;;;;16.95;9.20;;;4.50;72.00;;;;;;5098042;27;39196;-60
2022/03/01 05:57:53;;;;;;;15.20;9.65;;;4.40;73.00;;;;;;5098254;27;37452;-59
2022/03/01 06:00:22;;;;;;;17.05;9.65;;;4.40;72.90;;;;;;5097745;27;37342;-60
2022/03/01 06:02:50;;;;;;;16.83;9.38;;;4.40;73.30;;;;;;5097406;27;37038;-60
2022/03/01 06:05:19;;;;;;;16.88;9.00;;;4.40;73.00;;;;;;5097268;27;37513;-59
2022/03/01 06:07:47;;;;;;;14.93;8.95;;;4.50;72.70;;;;;;5097955;27;36447;-60
2022/03/01 06:10:15;;;;;;;18.90;9.57;;;4.50;72.40;;;;;;5098588;27;38357;-59
2022/03/01 06:12:42;;;;;;;16.70;9.98;;;4.60;72.40;;;;;;5098954;27;40759;-59
2022/03/01 06:15:11;;;;;;;15.25;9.00;;;4.50;72.10;;;;;;5097334;27;38180;-60
2022/03/01 06:17:39;;;;;;;16.23;9.15;;;4.50;72.60;;;;;;5097189;27;36615;-60
2022/03/01 06:20:08;;;;;;;16.17;9.77;;;4.50;72.60;;;;;;5097056;27;37579;-59
2022/03/01 06:22:37;;;;;;;16.63;10.13;;;4.50;72.80;;;;;;5096716;27;38655;-60
2022/03/01 06:25:07;;;;;;;19.38;10.68;;;4.50;73.00;;;;;;5096730;27;37919;-59
2022/03/01 06:27:36;;;;;;;16.05;9.77;;;4.50;73.10;;;;;;5094791;27;37124;-60
2022/03/01 06:30:04;;;;;;;16.23;9.55;;;4.60;72.90;;;;;;5097102;27;37602;-60
2022/03/01 06:32:31;;;;;;;17.10;10.20;;;4.70;72.90;;;;;;5094818;27;39217;-59
2022/03/01 06:34:59;;;;;;;15.90;9.80;;;4.70;72.60;;;;;;5096470;27;36619;-59
2022/03/01 06:37:26;;;;;;;16.33;9.82;;;4.80;72.30;;;;;;5097227;27;36840;-60
2022/03/01 06:39:55;;;;;;;16.42;8.68;;;4.90;72.00;;;;;;5097276;27;37499;-59
2022/03/01 06:42:23;;;;;;;16.42;9.77;;;5.00;71.80;;;;;;5095262;27;38420;-59
2022/03/01 06:44:50;;;;;;;15.48;9.98;;;5.00;71.60;;;;;;5102972;27;36599;-60
2022/03/01 06:47:19;;;;;;;19.35;9.35;;;5.00;71.60;;;;;;5101648;27;36626;-59
2022/03/01 06:49:46;;;;;;;21.73;10.25;;;5.00;71.40;;;;;;5104027;27;37984;-60
2022/03/01 06:52:13;;;;;;;19.02;9.77;;;5.00;71.20;;;;;;5103020;27;39284;-59
2022/03/01 06:54:41;;;;;;;17.48;9.38;;;5.00;71.00;;;;;;5102656;27;36567;-60
2022/03/01 06:57:09;;;;;;;16.05;9.88;;;5.00;70.90;;;;;;5102083;27;37358;-60
2022/03/01 06:59:37;;;;;;;17.30;10.25;;;5.00;71.40;;;;;;5103844;27;38029;-59
2022/03/01 07:02:04;;;;;;;19.20;9.93;;;4.90;71.60;;;;;;5102920;27;40096;-58
2022/03/01 07:04:32;;;;;;;19.30;10.50;;;4.80;71.90;;;;;;5103510;27;37678;-59
2022/03/01 07:06:59;;;;;;;16.38;10.15;;;4.80;72.30;;;;;;5102148;27;37569;-59
2022/03/01 07:09:26;;;;;;;17.42;10.38;;;4.90;72.20;;;;;;5101983;27;37469;-59
2022/03/01 07:11:56;;;;;;;17.45;10.13;;;4.90;72.10;;;;;;5100411;27;38185;-59
2022/03/01 07:14:24;;;;;;;17.83;9.98;;;5.00;72.20;;;;;;5101229;27;36805;-59
2022/03/01 07:16:52;;;;;;;16.23;10.25;;;5.00;72.30;;;;;;5101622;27;38015;-59
2022/03/01 07:19:19;;;;;;;17.05;9.93;;;5.00;72.20;;;;;;5103435;27;37672;-59
2022/03/01 07:21:47;;;;;;;14.77;9.40;;;5.10;71.60;;;;;;5103444;27;37986;-59
2022/03/01 07:24:14;;;;;;;19.38;10.73;;;5.10;72.10;;;;;;5103958;27;38509;-59
2022/03/01 07:26:41;;;;;;;16.95;10.13;;;5.10;72.00;;;;;;5103702;27;36090;-59
2022/03/01 07:29:09;;;;;;;17.92;10.50;;;5.00;71.90;;;;;;5102065;27;37592;-59
2022/03/01 07:31:37;;;;;;;18.25;10.07;;;5.00;72.10;;;;;;5101724;27;38736;-59
2022/03/01 07:34:05;;;;;;;16.17;9.57;;;5.00;72.80;;;;;;5101983;27;37788;-62
2022/03/01 07:36:32;;;;;;;18.27;10.68;;;5.00;72.60;;;;;;5103940;27;37214;-59
2022/03/01 07:39:00;;;;;;;18.10;10.55;;;5.10;73.00;;;;;;5101588;27;38054;-59
2022/03/01 07:41:27;;;;;;;19.23;10.52;;;5.10;73.10;;;;;;5103261;27;36961;-59
2022/03/01 07:43:55;;;;;;;16.55;10.32;;;5.10;73.30;;;;;;5100625;27;20071;-59
2022/03/01 07:46:23;;;;;;;17.30;11.27;;;5.20;72.30;;;;;;5102681;27;36850;-59
2022/03/01 07:48:52;;;;;;;17.05;10.35;;;5.30;72.20;;;;;;5103748;27;37463;-59
2022/03/01 07:51:19;;;;;;;17.30;10.70;;;5.40;71.70;;;;;;5102952;27;39082;-59
2022/03/01 07:53:46;;;;;;;18.40;10.55;;;5.40;71.10;;;;;;5100661;27;36590;-59
2022/03/01 07:56:14;;;;;;;18.08;10.20;;;5.50;71.10;;;;;;5094265;27;36755;-59
2022/03/01 07:58:43;;;;;;;18.20;10.25;;;5.50;71.10;;;;;;5097081;27;37893;-59
2022/03/01 08:01:10;;;;;;;16.42;10.20;;;5.50;71.30;;;;;;5096432;27;38387;-59
2022/03/01 08:03:37;;;;;;;15.88;9.57;;;5.50;70.60;;;;;;5097906;27;39338;-58
2022/03/01 08:06:06;;;;;;;18.55;11.55;;;5.60;70.20;;;;;;5098688;27;37047;-59
2022/03/01 08:08:35;;;;;;;16.90;10.68;;;5.60;70.30;;;;;;5098373;27;37038;-59
2022/03/01 08:11:03;;;;;;;16.90;10.25;;;5.60;70.50;;;;;;5100118;27;40444;-59
2022/03/01 08:13:34;;;;;;;16.55;10.05;;;5.60;70.30;;;;;;5098816;27;38438;-59
2022/03/01 08:16:02;;;;;;;14.43;9.52;;;5.70;71.10;;;;;;5097285;27;38346;-59
2022/03/01 08:18:30;;;;;;;17.95;10.55;;;5.60;70.10;;;;;;5097762;27;37537;-55
2022/03/01 08:20:58;;;;;;;17.45;11.20;;;5.70;70.30;;;;;;5098532;27;38949;-55
2022/03/01 08:23:27;;;;;;;14.60;9.68;;;5.70;70.40;;;;;;5098373;27;36729;-55
2022/03/01 08:25:54;;;;;;;16.83;10.43;;;5.70;70.40;;;;;;5098776;27;35649;-55
2022/03/01 08:28:22;;;;;;;16.45;10.45;;;5.60;70.50;;;;;;5098711;27;37903;-55
2022/03/01 08:30:49;;;;;;;17.13;10.73;;;5.60;70.70;;;;;;5092298;27;37885;-55
2022/03/01 08:33:16;;;;;;;16.00;9.48;;;5.60;70.40;;;;;;5093324;27;36092;-55
2022/03/01 08:35:44;;;;;;;16.08;10.93;;;5.70;70.60;;;;;;5095768;27;36836;-59
2022/03/01 08:38:11;;;;;;;17.45;9.88;;;5.80;70.40;;;;;;5097218;27;37733;-59
2022/03/01 08:40:40;;;;;;;16.58;10.35;;;5.80;70.50;;;;;;5099262;27;39027;-59
2022/03/01 08:43:09;;;;;;;17.40;10.25;;;6.10;70.30;;;;;;5096327;27;36607;-59
2022/03/01 08:45:40;;;;;;;15.68;10.32;;;6.00;69.70;;;;;;5097077;27;36682;-59
2022/03/01 08:48:08;;;;;;;17.70;9.82;;;6.20;69.60;;;;;;5096823;27;37560;-59
2022/03/01 08:50:42;;;;;;;17.20;10.18;;;6.20;69.50;;;;;;5096188;27;37066;-59
2022/03/01 08:53:10;;;;;;;17.70;10.27;;;6.30;69.40;;;;;;5096646;27;36896;-54
2022/03/01 08:55:37;;;;;;;17.38;10.40;;;6.40;69.40;;;;;;5098128;27;36966;-55
2022/03/01 08:58:06;;;;;;;16.85;9.95;;;6.40;68.90;;;;;;5098490;27;36597;-55
2022/03/01 09:00:34;;;;;;;16.77;10.73;;;6.50;68.90;;;;;;5096384;27;38288;-55
2022/03/01 09:03:01;;;;;;;17.77;10.88;;;6.70;68.70;;;;;;5096860;27;36651;-54
2022/03/01 09:05:32;;;;;;;17.02;10.50;;;6.80;69.10;;;;;;5096647;27;36816;-59
2022/03/01 09:07:59;;;;;;;16.48;10.05;;;7.10;68.50;;;;;;5097319;27;37870;-59
2022/03/01 09:10:32;;;;;;;19.23;10.85;;;7.30;67.20;;;;;;5097577;27;36843;-59
2022/03/01 09:13:00;;;;;;;16.75;10.70;;;7.50;66.70;;;;;;5098276;27;37572;-59
2022/03/01 09:15:31;;;;;;;15.32;10.43;;;7.60;65.90;;;;;;5097881;27;37532;-59
2022/03/01 09:17:59;;;;;;;17.00;11.10;;;7.70;65.00;;;;;;5097163;27;36378;-59
2022/03/01 09:20:27;;;;;;;17.58;11.07;;;7.80;65.70;;;;;;5097086;27;36969;-59
2022/03/01 09:22:55;;;;;;;18.92;12.00;;;7.90;64.40;;;;;;5097489;27;37937;-59
2022/03/01 09:25:22;;;;;;;18.70;10.52;;;7.80;63.70;;;;;;5097851;27;37271;-59
2022/03/01 09:27:50;;;;;;;22.90;10.73;;;7.80;63.60;;;;;;5095888;27;37408;-59
2022/03/01 09:30:18;;;;;;;17.95;11.27;;;7.70;63.40;;;;;;5096276;27;36399;-59
2022/03/01 09:32:47;;;;;;;18.63;10.50;;;7.60;62.30;;;;;;5096330;27;37925;-58
2022/03/01 09:35:15;;;;;;;18.63;10.93;;;7.60;62.40;;;;;;5094709;27;35770;-60
2022/03/01 09:37:42;;;;;;;17.23;11.30;;;7.60;62.40;;;;;;5093046;27;38164;-59
2022/03/01 09:40:12;;;;;;;16.83;10.20;;;7.50;62.90;;;;;;5096037;27;38054;-59
2022/03/01 09:42:40;;;;;;;15.75;10.15;;;7.40;63.60;;;;;;5094875;27;40364;-59
2022/03/01 09:45:08;;;;;;;16.55;10.32;;;7.40;63.50;;;;;;5094841;27;37048;-59
2022/03/01 09:47:37;;;;;;;19.13;11.20;;;7.30;63.70;;;;;;5095546;27;37472;-59
2022/03/01 09:50:08;;;;;;;16.38;11.38;;;7.40;63.60;;;;;;5096838;27;38641;-59
2022/03/01 09:52:37;;;;;;;20.65;11.15;;;7.50;64.20;;;;;;5096917;27;37781;-59
2022/03/01 09:55:05;;;;;;;22.70;12.38;;;7.50;64.20;;;;;;5096911;27;37090;-58
2022/03/01 09:57:33;;;;;;;18.23;11.60;;;7.70;63.80;;;;;;5096167;27;37417;-60
2022/03/01 10:00:00;;;;;;;16.92;11.43;;;7.80;63.50;;;;;;5093288;27;37707;-59
2022/03/01 10:02:34;;;;;;;18.27;11.38;;;8.10;63.90;;;;;;5095634;27;36665;-59
2022/03/01 10:05:02;;;;;;;18.33;11.52;;;8.10;62.20;;;;;;5095025;27;37053;-60
2022/03/01 10:07:32;;;;;;;18.55;11.25;;;8.20;63.20;;;;;;5095308;27;37597;-59
2022/03/01 10:10:08;;;;;;;18.17;11.02;;;8.30;62.30;;;;;;5095179;27;38717;-59
2022/03/01 10:12:36;;;;;;;18.52;11.32;;;8.40;62.70;;;;;;5095397;27;37868;-59
2022/03/01 10:15:06;;;;;;;21.92;10.93;;;8.60;62.70;;;;;;5095042;27;36801;-59
2022/03/01 10:17:35;;;;;;;17.73;11.35;;;8.80;62.10;;;;;;5094311;27;37688;-59
2022/03/01 10:20:06;;;;;;;17.45;11.15;;;8.90;61.20;;;;;;5095547;27;37875;-59
2022/03/01 10:22:38;;;;;;;20.05;11.13;;;9.00;59.90;;;;;;5094865;27;36671;-60
2022/03/01 10:25:08;;;;;;;17.15;10.75;;;9.00;59.40;;;;;;5094335;27;36535;-59
2022/03/01 10:27:36;;;;;;;16.08;10.25;;;9.00;59.80;;;;;;5093554;27;36567;-59
2022/03/01 10:30:05;;;;;;;18.63;12.15;;;9.00;58.70;;;;;;5094508;27;38850;-60
2022/03/01 10:32:33;;;;;;;17.50;11.18;;;9.00;58.80;;;;;;5094704;27;38009;-59
2022/03/01 10:35:03;;;;;;;17.38;11.57;;;8.90;59.30;;;;;;5095023;27;37881;-59
2022/03/01 10:37:33;;;;;;;17.67;11.82;;;8.90;59.80;;;;;;5092637;27;36316;-58
2022/03/01 10:40:13;;;;;;;17.33;11.18;;;8.90;59.70;;;;;;5093332;27;38207;-58
2022/03/01 10:42:41;;;;;;;18.27;12.40;;;8.90;59.90;;;;;;5094207;27;38607;-59
2022/03/01 10:45:10;;;;;;;20.60;11.73;;;8.90;61.40;;;;;;5095001;27;37410;-59
2022/03/01 10:47:38;;;;;;;19.08;12.38;;;8.90;60.60;;;;;;5094456;27;37579;-58
2022/03/01 10:50:08;;;;;;;18.27;11.68;;;8.90;60.30;;;;;;5094622;27;36820;-59
2022/03/01 10:52:37;;;;;;;14.30;10.80;;;8.90;60.40;;;;;;5094655;27;38489;-59
2022/03/01 10:55:06;;;;;;;20.67;12.00;;;9.00;60.60;;;;;;5094850;27;37103;-59
2022/03/01 10:57:35;;;;;;;16.10;11.20;;;9.10;60.20;;;;;;5096526;27;38135;-59
2022/03/01 11:00:03;;;;;;;16.38;10.63;;;9.00;60.00;;;;;;5096030;27;36956;-58
2022/03/01 11:02:30;;;;;;;16.77;11.20;;;9.10;60.40;;;;;;5094750;27;36657;-58
2022/03/01 11:04:58;;;;;;;18.50;11.75;;;9.10;60.50;;;;;;5094512;27;36545;-59
2022/03/01 11:07:29;;;;;;;19.40;12.25;;;9.00;60.40;;;;;;5093596;27;36391;-59
2022/03/01 11:09:59;;;;;;;18.90;11.65;;;9.00;60.10;;;;;;5094454;27;37011;-59
2022/03/01 11:12:27;;;;;;;18.52;12.00;;;9.00;60.90;;;;;;5094685;27;37854;-59
2022/03/01 11:15:05;;;;;;;16.70;11.20;;;9.10;60.90;;;;;;5095206;27;36908;-59
2022/03/01 11:17:44;;;;;;;18.45;11.13;;;9.10;61.00;;;;;;5095199;27;37833;-59
2022/03/01 11:20:15;;;;;;;19.75;11.75;;;9.10;61.20;;;;;;5096364;27;37084;-59
2022/03/01 11:22:45;;;;;;;16.60;11.50;;;9.20;60.80;;;;;;5096394;27;39405;-59
2022/03/01 11:25:17;;;;;;;18.20;12.02;;;9.20;60.70;;;;;;5094896;27;36852;-58
2022/03/01 11:27:46;;;;;;;18.17;11.73;;;9.30;60.50;;;;;;5092959;27;37748;-59
2022/03/01 11:30:16;;;;;;;19.20;12.75;;;9.30;60.40;;;;;;5096135;27;39081;-58
2022/03/01 11:32:45;;;;;;;19.10;12.60;;;9.30;60.30;;;;;;5097109;27;38678;-58
2022/03/01 11:35:18;;;;;;;17.92;12.02;;;9.20;60.50;;;;;;5097391;27;37659;-58
2022/03/01 11:37:46;;;;;;;19.45;12.75;;;9.20;60.70;;;;;;5097342;27;37910;-58
2022/03/01 11:40:22;;;;;;;17.67;11.75;;;9.20;60.60;;;;;;5095967;27;38244;-58
2022/03/01 11:42:50;;;;;;;19.83;11.75;;;9.30;60.90;;;;;;5098728;27;37576;-58
2022/03/01 11:45:19;;;;;;;19.33;12.25;;;9.20;61.00;;;;;;5097841;27;35601;-59
2022/03/01 11:47:46;;;;;;;19.52;11.73;;;9.10;61.10;;;;;;5099715;27;37366;-59
2022/03/01 11:50:16;;;;;;;18.58;11.55;;;9.10;60.90;;;;;;5099530;27;38563;-58
2022/03/01 11:52:54;;;;;;;22.98;12.70;;;9.00;60.60;;;;;;5100257;27;36654;-59
2022/03/01 11:55:23;;;;;;;20.00;12.70;;;9.00;61.00;;;;;;5100344;27;36960;-58
2022/03/01 11:57:52;;;;;;;18.45;12.00;;;8.90;61.50;;;;;;5098149;27;38204;-59
2022/03/01 12:00:26;;;;;;;22.00;12.50;;;8.90;61.20;;;;;;5099533;27;38404;-59
2022/03/01 12:02:53;;;;;;;17.88;11.77;;;8.90;60.70;;;;;;5097862;27;38938;-58
2022/03/01 12:05:26;;;;;;;19.40;12.75;;;8.80;60.90;;;;;;5097373;27;35502;-58
2022/03/01 12:07:54;;;;;;;19.70;11.77;;;8.80;61.20;;;;;;5099250;27;37640;-59
2022/03/01 12:10:23;;;;;;;20.58;12.05;;;8.80;61.70;;;;;;5097022;27;38501;-59
2022/03/01 12:12:54;;;;;;;19.10;12.30;;;8.80;61.50;;;;;;5097585;27;38627;-58
2022/03/01 12:15:31;;;;;;;19.45;12.55;;;8.80;61.30;;;;;;5097763;27;36719;-59
2022/03/01 12:18:10;;;;;;;18.73;11.13;;;8.80;61.40;;;;;;5098235;27;36340;-58
2022/03/01 12:20:40;;;;;;;20.00;12.27;;;8.80;61.70;;;;;;5097562;27;37851;-58
2022/03/01 12:23:08;;;;;;;18.42;12.38;;;8.90;62.30;;;;;;5097943;27;38579;-59
2022/03/01 12:25:37;;;;;;;20.42;13.02;;;8.90;61.80;;;;;;5095355;27;36776;-59
2022/03/01 12:28:06;;;;;;;18.25;12.90;;;8.90;61.90;;;;;;5097704;27;36492;-58
2022/03/01 12:30:43;;;;;;;22.20;12.68;;;9.00;61.40;;;;;;5096913;27;37986;-59
2022/03/01 12:33:16;;;;;;;20.38;12.80;;;9.00;61.60;;;;;;5095480;27;36588;-59
2022/03/01 12:35:44;;;;;;;18.00;11.93;;;9.00;62.50;;;;;;5095615;27;37155;-59
2022/03/01 12:38:13;;;;;;;19.17;11.90;;;9.10;61.90;;;;;;5097422;27;38055;-60
2022/03/01 12:40:41;;;;;;;19.48;12.30;;;9.10;61.30;;;;;;5095841;27;38045;-59
2022/03/01 12:43:12;;;;;;;21.23;11.95;;;9.10;60.50;;;;;;5095372;27;37600;-59
2022/03/01 12:45:43;;;;;;;18.90;12.55;;;9.10;60.60;;;;;;5094994;27;35836;-59
2022/03/01 12:48:12;;;;;;;18.38;12.95;;;9.20;60.50;;;;;;5095807;27;37536;-59
2022/03/01 12:50:46;;;;;;;21.67;12.07;;;9.20;59.80;;;;;;5097010;27;37046;-59